Latest Weather Observations for Walpeup

IDV60801

Issued at 3:32 pm EST Saturday 2 July 2022 (issued every 10 minutes, with the page automatically refreshed every 10 minutes)

About weather observations | Map of weather stations | Latest weather observations for VIC | Other Formats
Station Details ID: 076064 Name: WALPEUP RESEARCH Lat: -35.12 Lon: 142.00 Height: 105.0 m
Data from the previous 72 hours. | See also: Recent months at Walpeup
Date/Time
EST
Temp
°C
App
Temp
°C
Dew
Point
°C
Rel
Hum
%
Delta-T
°C
Wind Press
QNH
hPa
Press
MSL
hPa
Rain since
9am
mm
Dir  Spd
km/h
Gust
km/h
Spd
kts
Gust
kts
02/03:30pm 10.8 4.9 4.0 63 3.0 S 24 32 13 17 - - 0.0
02/03:00pm 10.9 5.0 4.1 63 3.0 SSW 24 35 13 19 - - 0.0
02/02:30pm 10.7 5.7 4.4 65 2.8 SSW 20 32 11 17 - - 0.0
02/02:00pm 10.8 5.4 4.7 66 2.8 S 22 32 12 17 - - 0.0
02/01:30pm 10.5 5.7 4.4 66 2.7 S 19 30 10 16 - - 0.0
02/01:00pm 10.1 5.1 4.5 68 2.5 S 20 28 11 15 - - 0.0
02/12:30pm 9.6 3.8 4.4 70 2.3 S 24 32 13 17 - - 0.0
02/12:00pm 9.9 4.5 4.7 70 2.3 S 22 33 12 18 - - 0.0
02/11:30am 9.8 4.7 5.8 76 1.8 S 22 35 12 19 - - 0.0
02/11:00am 8.5 3.8 6.0 84 1.1 S 20 28 11 15 - - 0.0
02/10:30am 7.2 3.7 7.2 100 0.0 SSW 15 20 8 11 - - 0.0
02/10:00am 6.0 3.0 6.0 100 0.0 S 11 19 6 10 - - 0.0
02/09:30am 4.1 1.1 4.1 100 0.0 SSW 9 13 5 7 - - 0.0
02/09:00am 2.9 -0.3 2.9 100 0.0 S 9 15 5 8 - - 0.2
02/08:30am 2.6 -1.1 2.6 100 0.0 S 11 17 6 9 - - 0.2
02/08:00am 1.9 -1.9 1.9 100 0.0 S 11 13 6 7 - - 0.2
02/07:30am 1.7 -1.7 1.7 100 0.0 S 9 13 5 7 - - 0.2
02/07:00am 1.8 -1.6 1.8 100 0.0 S 9 11 5 6 - - 0.2
02/06:30am 2.0 -1.4 1.9 99 0.0 S 9 13 5 7 - - 0.0
02/06:00am 2.3 -1.0 2.2 99 0.0 S 9 13 5 7 - - 0.0
02/05:30am 2.6 -1.1 2.5 99 0.0 S 11 13 6 7 - - 0.0
02/05:00am 2.9 -0.8 2.5 97 0.2 S 11 13 6 7 - - 0.0
02/04:30am 3.8 0.2 3.1 95 0.3 S 11 15 6 8 - - 0.0
02/04:00am 4.0 0.1 3.3 95 0.3 S 13 17 7 9 - - 0.0
02/03:30am 3.6 -0.4 2.7 94 0.4 S 13 15 7 8 - - 0.0
02/03:00am 4.1 0.2 3.2 94 0.4 S 13 15 7 8 - - 0.0
02/02:30am 4.1 0.6 3.4 95 0.3 S 11 17 6 9 - - 0.0
02/02:00am 3.2 0.0 2.8 97 0.2 SSW 9 13 5 7 - - 0.0
02/01:30am 2.9 -0.3 2.8 99 0.0 SSW 9 11 5 6 - - 0.0
02/01:00am 2.1 -1.3 1.7 97 0.2 SSW 9 11 5 6 - - 0.0
02/12:30am 2.2 -1.3 1.5 95 0.3 SSW 9 11 5 6 - - 0.0
02/12:00am 2.6 -0.9 1.4 92 0.5 S 9 11 5 6 - - 0.0
 
Date/Time
EST
Temp
°C
App
Temp
°C
Dew
Point
°C
Rel
Hum
%
Delta-T
°C
Wind Press
QNH
hPa
Press
MSL
hPa
Rain since
9am
mm
Dir  Spd
km/h
Gust
km/h
Spd
kts
Gust
kts
01/11:30pm 3.5 -0.2 2.3 92 0.5 S 11 15 6 8 - - 0.0
01/11:00pm 3.1 -0.6 2.1 93 0.4 SSW 11 13 6 7 - - 0.0
01/10:30pm 2.8 -0.7 1.5 91 0.5 SSW 9 13 5 7 - - 0.0
01/10:00pm 3.1 0.0 1.6 90 0.6 SSW 7 9 4 5 - - 0.0
01/09:30pm 3.4 0.4 1.8 89 0.6 SSW 7 9 4 5 - - 0.0
01/09:00pm 4.0 0.7 2.5 90 0.6 SSW 9 11 5 6 - - 0.0
01/08:30pm 4.2 0.9 2.2 87 0.8 SSW 9 11 5 6 - - 0.0
01/08:00pm 4.6 1.2 2.0 83 1.0 SSW 9 11 5 6 - - 0.0
01/07:30pm 5.5 2.5 2.0 78 1.4 SSW 7 9 4 5 - - 0.0
01/07:00pm 5.9 3.0 2.4 78 1.4 SSW 7 9 4 5 - - 0.0
01/06:30pm 7.1 4.3 3.0 75 1.7 SSW 7 9 4 5 - - 0.0
01/06:00pm 9.0 5.1 3.6 69 2.4 SSW 13 17 7 9 - - 0.0
01/05:30pm 10.2 6.1 4.1 66 2.7 SSW 15 22 8 12 - - 0.0
01/05:00pm 11.1 6.7 4.6 64 2.9 SSW 17 26 9 14 - - 0.0
01/04:30pm 11.6 6.6 4.6 62 3.2 SSW 20 26 11 14 - - 0.0
01/04:00pm 11.8 7.8 4.8 62 3.2 SSW 15 22 8 12 - - 0.0
01/03:30pm 11.8 7.4 5.0 63 3.1 SSW 17 24 9 13 - - 0.0
01/03:00pm 11.9 7.0 4.9 62 3.2 SSW 20 28 11 15 - - 0.0
01/02:30pm 12.2 7.8 4.9 61 3.4 SSW 17 22 9 12 - - 0.0
01/02:00pm 12.4 8.1 5.1 61 3.4 S 17 24 9 13 - - 0.0
01/01:30pm 13.1 7.9 5.5 60 3.6 S 22 32 12 17 - - 0.0
01/01:00pm 13.2 8.7 6.1 62 3.4 S 19 26 10 14 - - 0.0
01/12:30pm 13.0 8.4 5.7 61 3.4 S 19 24 10 13 - - 0.0
01/12:00pm 12.4 7.8 5.6 63 3.2 S 19 24 10 13 - - 0.0
01/11:30am 11.6 6.4 5.3 65 2.9 S 22 30 12 16 - - 0.0
01/11:00am 10.9 6.2 6.1 72 2.2 S 20 28 11 15 - - 0.0
01/10:30am 9.9 5.6 7.0 82 1.4 S 19 26 10 14 - - 0.0
01/10:00am 8.2 4.4 7.6 96 0.3 S 17 24 9 13 - - 0.0
01/09:30am 7.7 4.3 7.7 100 0.0 S 15 22 8 12 - - 0.0
01/09:00am 6.7 3.5 6.7 100 0.0 S 13 17 7 9 - - 0.2
01/08:30am 5.7 2.6 5.7 100 0.0 S 11 15 6 8 - - 0.2
01/08:00am 4.5 1.6 4.5 100 0.0 S 9 13 5 7 - - 0.2
01/07:30am 3.6 0.9 3.6 100 0.0 SSW 7 9 4 5 - - 0.0
01/07:00am 3.2 0.0 3.2 100 0.0 SSW 9 11 5 6 - - 0.0
01/06:30am 3.6 0.1 3.6 100 0.0 S 11 13 6 7 - - 0.0
01/06:00am 3.2 0.0 3.2 100 0.0 S 9 13 5 7 - - 0.0
01/05:30am 3.0 -0.2 3.0 100 0.0 S 9 13 5 7 - - 0.0
01/05:00am 3.2 -0.4 3.2 100 0.0 S 11 15 6 8 - - 0.0
01/04:30am 3.5 0.0 3.5 100 0.0 S 11 15 6 8 - - 0.0
01/04:00am 3.0 -0.6 3.0 100 0.0 S 11 13 6 7 - - 0.0
01/03:30am 3.5 0.0 3.5 100 0.0 S 11 15 6 8 - - 0.0
01/03:00am 3.1 -0.9 3.1 100 0.0 S 13 15 7 8 - - 0.0
01/02:30am 2.9 -0.7 2.9 100 0.0 S 11 13 6 7 - - 0.0
01/02:00am 3.0 -0.2 2.9 99 0.0 S 9 13 5 7 - - 0.0
01/01:30am 2.9 -0.3 2.8 99 0.0 S 9 11 5 6 - - 0.0
01/01:00am 3.1 0.3 3.0 99 0.0 S 7 9 4 5 - - 0.0
01/12:30am 3.2 0.0 3.1 99 0.0 S 9 9 5 5 - - 0.0
01/12:00am 3.9 1.4 3.5 97 0.2 S 6 7 3 4 - - 0.0
 
Date/Time
EST
Temp
°C
App
Temp
°C
Dew
Point
°C
Rel
Hum
%
Delta-T
°C
Wind Press
QNH
hPa
Press
MSL
hPa
Rain since
9am
mm
Dir  Spd
km/h
Gust
km/h
Spd
kts
Gust
kts
30/11:30pm 4.3 2.1 3.3 93 0.4 SSW 4 6 2 3 - - 0.0
30/11:00pm 5.5 2.6 4.6 94 0.4 S 9 11 5 6 - - 0.0
30/10:30pm 5.5 2.6 4.5 93 0.4 S 9 11 5 6 - - 0.0
30/10:00pm 6.4 3.5 4.6 88 0.8 SSE 9 13 5 7 - - 0.0
30/09:30pm 6.6 3.3 4.8 88 0.8 SSE 11 13 6 7 - - 0.0
30/09:00pm 6.6 3.8 5.2 91 0.6 S 9 13 5 7 - - 0.0
30/08:30pm 6.2 3.4 5.3 94 0.4 S 9 11 5 6 - - 0.0
30/08:00pm 6.3 3.5 5.3 93 0.4 S 9 11 5 6 - - 0.0
30/07:30pm 6.5 3.8 5.5 93 0.4 S 9 13 5 7 - - 0.0
30/07:00pm 6.6 3.9 5.7 94 0.4 S 9 11 5 6 - - 0.0
30/06:30pm 6.9 4.2 5.5 91 0.6 S 9 11 5 6 - - 0.0
30/06:00pm 8.0 5.4 6.3 89 0.8 S 9 11 5 6 - - 0.0
30/05:30pm 8.8 5.9 6.4 85 1.1 SSW 11 13 6 7 - - 0.0
30/05:00pm 10.8 8.5 7.3 79 1.7 S 9 13 5 7 - - 0.0
30/04:30pm 11.3 8.9 7.0 75 2.1 SSW 9 11 5 6 - - 0.0
30/04:00pm 11.6 8.9 7.3 75 2.1 S 11 15 6 8 - - 0.0
30/03:30pm 12.7 10.0 7.4 70 2.6 S 11 17 6 9 - - 0.0
30/03:00pm 11.2 7.7 7.1 76 2.0 SSW 15 19 8 10 - - 0.0
30/02:30pm 12.7 9.7 7.6 71 2.5 SSW 13 19 7 10 - - 0.0
30/02:00pm 13.3 11.7 8.6 73 2.4 SW 7 15 4 8 - - 0.0
30/01:30pm 11.9 9.0 8.0 77 1.9 S 13 17 7 9 - - 0.0
30/01:00pm 11.9 9.8 8.4 79 1.7 S 9 13 5 7 - - 0.0
30/12:30pm 11.9 8.6 8.0 77 1.9 SSW 15 19 8 10 - - 0.0
30/12:00pm 11.9 10.2 8.2 78 1.8 SSW 7 11 4 6 - - 0.0
30/11:30am 11.3 9.6 7.6 78 1.8 SSW 6 9 3 5 - - 0.0
30/11:00am 10.6 8.9 7.5 81 1.5 S 6 7 3 4 - - 0.0
30/10:30am 9.4 7.5 7.5 88 0.9 SSE 7 11 4 6 - - 0.0
30/10:00am 9.0 6.8 7.9 93 0.5 S 9 13 5 7 - - 0.0
30/09:30am 7.6 5.9 7.6 100 0.0 SSW 6 7 3 4 - - 0.0
30/09:00am 6.4 4.2 6.4 100 0.0 S 7 9 4 5 - - 0.0
30/08:30am 4.7 2.7 4.6 99 0.0 SSW 4 4 2 2 - - 0.0
30/08:00am 4.3 2.6 4.2 99 0.0 WNW 2 2 1 1 - - 0.0
30/07:30am 4.6 2.6 4.2 97 0.2 WNW 4 4 2 2 - - 0.0
30/07:00am 4.4 2.6 3.4 93 0.4 WNW 2 4 1 2 - - 0.0
30/06:30am 5.1 3.7 3.4 89 0.7 CALM 0 0 0 0 - - 0.0
30/06:00am 5.7 3.9 3.2 84 1.0 W 2 4 1 2 - - 0.0
30/05:30am 6.6 4.9 3.9 83 1.2 W 2 2 1 1 - - 0.0
30/05:00am 6.6 4.5 3.9 83 1.2 W 4 6 2 3 - - 0.0
30/04:30am 6.4 4.3 3.9 84 1.1 WNW 4 6 2 3 - - 0.0
30/04:00am 6.1 3.9 3.3 82 1.2 NW 4 6 2 3 - - 0.0
30/03:30am 6.6 4.0 3.2 79 1.4 NW 6 9 3 5 - - 0.0
30/03:00am 6.4 3.6 2.9 78 1.5 NW 7 9 4 5 - - 0.0
30/02:30am 6.1 2.8 2.7 79 1.4 NNW 9 13 5 7 - - 0.0
30/02:00am 6.3 2.7 3.1 80 1.3 NNW 11 13 6 7 - - 0.0
30/01:30am 5.8 2.1 2.4 79 1.4 NNW 11 13 6 7 - - 0.0
30/01:00am 6.6 2.6 3.0 78 1.5 N 13 17 7 9 - - 0.0
30/12:30am 7.2 3.3 3.3 76 1.7 N 13 17 7 9 - - 0.0
30/12:00am 7.5 3.7 3.7 77 1.6 N 13 19 7 10 - - 0.0
 
Date/Time
EST
Temp
°C
App
Temp
°C
Dew
Point
°C
Rel
Hum
%
Delta-T
°C
Wind Press
QNH
hPa
Press
MSL
hPa
Rain since
9am
mm
Dir  Spd
km/h
Gust
km/h
Spd
kts
Gust
kts
29/11:30pm 7.5 3.7 3.7 77 1.6 N 13 15 7 8 - - 0.0
29/11:00pm 8.3 4.9 4.1 75 1.8 N 11 17 6 9 - - 0.0
29/10:30pm 8.7 5.3 4.1 73 2.0 N 11 17 6 9 - - 0.0
29/10:00pm 7.8 4.3 3.7 75 1.8 N 11 15 6 8 - - 0.0
29/09:30pm 8.6 4.8 3.8 72 2.1 N 13 17 7 9 - - 0.0
29/09:00pm 8.1 4.6 3.6 73 1.9 N 11 15 6 8 - - 0.0
29/08:30pm 8.7 5.2 3.7 71 2.2 N 11 13 6 7 - - 0.0
29/08:00pm 7.9 4.4 3.6 74 1.9 N 11 13 6 7 - - 0.0
29/07:30pm 8.7 4.9 3.7 71 2.2 N 13 15 7 8 - - 0.0
29/07:00pm 8.6 5.5 3.6 71 2.2 N 9 15 5 8 - - 0.0
29/06:30pm 9.4 6.0 3.8 68 2.5 NNE 11 15 6 8 - - 0.0
29/06:00pm 9.3 6.3 4.1 70 2.3 N 9 13 5 7 - - 0.0
29/05:30pm 9.2 6.5 3.6 68 2.4 N 7 9 4 5 - - 0.0
29/05:00pm 10.9 7.9 3.9 62 3.1 N 9 11 5 6 - - 0.0
29/04:30pm 11.5 8.9 4.0 60 3.4 N 7 11 4 6 - - 0.0
29/04:00pm 11.8 7.9 3.3 56 3.8 N 13 17 7 9 - - 0.0

Other formats

Comma delimited format used in spreadsheet applications
http://www.bom.gov.au/fwo/IDV60801/IDV60801.95831.axf

JavaScript Object Notation format (JSON) in row-major order
http://www.bom.gov.au/fwo/IDV60801/IDV60801.95831.json

Data quality

Most of these data are generated automatically and are frequently updated. Quality checks on data are not normally performed. It is possible for incorrect values to appear. Refer to information at About Latest Weather Observations and please check the disclaimer before using these data.